Terminal Aerodrome Forecast
Issued by NWS

Home | Current Version | Previous Version | Text Only | Print | Product List | Glossary Off
Versions: 1 2 3 4 5 6 7 8 9 10 11 12 13 14 15 16

000
FTUS43 KUNR 241502 AAA
TAFGCC
TAF AMD
KGCC 241502Z 2415/2512 33009KT P6SM SCT020 BKN100
      TEMPO 2415/2417 BKN018
     FM250200 05012KT P6SM -RA OVC015
     FM250900 02018KT 1SM -SN BR OVC004=

USA.gov is the U.S. government's official web portal to all federal, state and local government web resources and services.